Time;durP1;ratioP1;P1;durP2;ratioP2;P2;SDS_P1;SDS_P2;PMS_P1;PMS_P2;Temp;Humidity;BMP_temperature;BMP_pressure;BME280_temperature;BME280_humidity;BME280_pressure;Samples;Min_cycle;Max_cycle;Signal;HPM_P1;HPM_P2
2023/04/18 00:01:56;;;;;;;14.70;10.10;;;;;;;;;;4961870;28;20467;-83
2023/04/18 00:04:25;;;;;;;12.67;10.27;;;;;;;;;;4950839;28;20492;-84
2023/04/18 00:06:52;;;;;;;13.27;9.73;;;;;;;;;;4937511;29;20476;-85
2023/04/18 00:09:19;;;;;;;16.53;10.23;;;;;;;;;;4937221;29;20483;-84
2023/04/18 00:11:46;;;;;;;13.90;11.97;;;;;;;;;;4938140;29;20464;-83
2023/04/18 00:14:14;;;;;;;19.10;11.63;;;;;;;;;;4938130;29;20475;-84
2023/04/18 00:16:42;;;;;;;14.60;10.70;;;;;;;;;;4937718;28;20483;-83
2023/04/18 00:19:09;;;;;;;15.83;10.70;;;;;;;;;;4938095;29;20857;-84
2023/04/18 00:21:38;;;;;;;15.50;11.57;;;;;;;;;;4936622;29;20673;-84
2023/04/18 00:24:05;;;;;;;16.80;10.90;;;;;;;;;;4937994;29;20487;-84
2023/04/18 00:26:32;;;;;;;16.20;11.10;;;;;;;;;;4938079;29;20524;-85
2023/04/18 00:28:59;;;;;;;14.43;10.37;;;;;;;;;;4937566;29;20471;-84
2023/04/18 00:31:26;;;;;;;15.20;11.00;;;;;;;;;;4937815;29;20459;-85
2023/04/18 00:33:54;;;;;;;15.20;11.57;;;;;;;;;;4937726;29;20463;-83
2023/04/18 00:36:21;;;;;;;14.50;10.47;;;;;;;;;;4936432;29;20503;-84
2023/04/18 00:38:49;;;;;;;15.00;10.57;;;;;;;;;;4937562;29;20463;-84
2023/04/18 00:41:16;;;;;;;15.30;11.83;;;;;;;;;;4937499;29;20463;-84
2023/04/18 00:43:43;;;;;;;14.83;10.40;;;;;;;;;;4937485;29;20463;-83
2023/04/18 00:46:10;;;;;;;20.03;12.83;;;;;;;;;;4937995;29;20495;-84
2023/04/18 00:48:39;;;;;;;14.63;10.50;;;7.40;99.90;;;;;;4937767;29;20463;-87
2023/04/18 00:51:06;;;;;;;13.77;9.87;;;;;;;;;;4936644;29;20570;-85
2023/04/18 00:53:33;;;;;;;17.47;10.50;;;;;;;;;;4937809;29;20456;-86
2023/04/18 00:56:02;;;;;;;16.30;11.20;;;;;;;;;;4937769;29;20456;-86
2023/04/18 00:58:29;;;;;;;16.10;12.50;;;;;;;;;;4937779;29;20452;-83
2023/04/18 01:00:56;;;;;;;17.63;11.43;;;;;;;;;;4937689;29;20456;-84
2023/04/18 01:03:24;;;;;;;14.47;11.03;;;;;;;;;;4937796;29;20463;-84
2023/04/18 01:05:51;;;;;;;21.10;10.30;;;;;;;;;;4936136;29;20608;-83
2023/04/18 01:08:19;;;;;;;13.33;9.83;;;7.50;99.90;;;;;;4937627;29;20451;-84
2023/04/18 01:10:46;;;;;;;14.67;11.13;;;;;;;;;;4937497;29;20456;-83
2023/04/18 01:13:16;;;;;;;14.67;10.43;;;7.50;99.90;;;;;;4937561;29;20448;-84
2023/04/18 01:15:43;;;;;;;13.77;10.80;;;;;;;;;;4937450;29;20452;-84
2023/04/18 01:18:10;;;;;;;14.70;10.43;;;;;;;;;;4937412;29;20511;-84
2023/04/18 01:20:40;;;;;;;13.40;10.37;;;7.40;99.90;;;;;;4935867;29;20966;-84
2023/04/18 01:23:09;;;;;;;13.50;10.00;;;;;;;;;;4937402;29;20507;-86
2023/04/18 01:25:37;;;;;;;15.10;10.33;;;;;;;;;;4937048;29;20499;-84
2023/04/18 01:28:04;;;;;;;15.23;10.40;;;;;;;;;;4937219;29;20460;-84
2023/04/18 01:30:32;;;;;;;16.83;10.00;;;;;;;;;;4937054;29;20463;-85
2023/04/18 01:32:59;;;;;;;16.83;11.47;;;;;;;;;;4937296;29;20483;-84
2023/04/18 01:35:26;;;;;;;13.83;10.37;;;;;;;;;;4935962;29;20452;-86
2023/04/18 01:37:53;;;;;;;13.07;10.23;;;;;;;;;;4936872;29;20459;-84
2023/04/18 01:40:20;;;;;;;12.97;10.73;;;;;;;;;;4936916;29;21102;-84
2023/04/18 01:42:49;;;;;;;16.07;10.47;;;;;;;;;;4936745;29;20967;-84
2023/04/18 01:45:16;;;;;;;13.53;10.00;;;7.30;99.90;;;;;;4936695;29;20871;-85
2023/04/18 01:47:43;;;;;;;12.00;9.33;;;;;;;;;;4936882;29;20451;-84
2023/04/18 01:50:11;;;;;;;14.73;9.77;;;;;;;;;;4935760;29;20448;-85
2023/04/18 01:52:38;;;;;;;13.97;9.87;;;;;;;;;;4936781;29;20456;-85
2023/04/18 01:55:05;;;;;;;13.20;10.30;;;;;;;;;;4936645;29;20956;-85
2023/04/18 01:57:35;;;;;;;15.60;10.63;;;;;;;;;;4936694;29;20460;-86
2023/04/18 02:00:05;;;;;;;17.17;10.60;;;;;;;;;;4935722;29;20866;-84
2023/04/18 02:02:32;;;;;;;15.47;11.00;;;;;;;;;;4936994;29;20464;-85
2023/04/18 02:05:00;;;;;;;13.60;9.17;;;;;;;;;;4935387;29;21382;-84
2023/04/18 02:07:27;;;;;;;13.43;9.80;;;;;;;;;;4936642;29;20455;-85
2023/04/18 02:09:54;;;;;;;13.07;9.87;;;;;;;;;;4936445;29;20467;-84
2023/04/18 02:12:21;;;;;;;13.13;9.83;;;;;;;;;;4936509;29;20455;-84
2023/04/18 02:14:52;;;;;;;13.00;10.13;;;7.30;99.90;;;;;;4936574;29;20452;-85
2023/04/18 02:17:22;;;;;;;13.13;8.90;;;7.30;99.90;;;;;;4936229;29;20546;-83
2023/04/18 02:19:49;;;;;;;16.47;9.67;;;;;;;;;;4934880;29;20456;-84
2023/04/18 02:22:17;;;;;;;15.27;9.77;;;;;;;;;;4936104;29;20452;-84
2023/04/18 02:24:44;;;;;;;14.40;9.33;;;;;;;;;;4936121;29;20452;-84
2023/04/18 02:27:11;;;;;;;14.90;10.60;;;;;;;;;;4936154;29;20499;-85
2023/04/18 02:29:38;;;;;;;15.70;8.97;;;;;;;;;;4936320;29;20807;-86
2023/04/18 02:32:05;;;;;;;15.70;10.13;;;;;;;;;;4935708;29;20459;-85
2023/04/18 02:34:33;;;;;;;12.13;9.43;;;7.30;99.90;;;;;;4947001;29;20436;-84
2023/04/18 02:37:01;;;;;;;13.37;9.13;;;;;;;;;;4959841;28;20447;-84
2023/04/18 02:39:28;;;;;;;14.33;10.43;;;;;;;;;;4937159;29;20436;-85
2023/04/18 02:41:55;;;;;;;16.80;9.03;;;;;;;;;;4934264;29;20463;-84
2023/04/18 02:44:22;;;;;;;14.80;9.60;;;;;;;;;;4936013;29;20830;-84
2023/04/18 02:46:49;;;;;;;13.30;9.40;;;;;;;;;;4935977;29;20983;-84
2023/04/18 02:49:16;;;;;;;12.30;9.57;;;;;;;;;;4947131;29;20447;-85
2023/04/18 02:51:44;;;;;;;12.33;9.60;;;;;;;;;;4954149;29;20451;-83
2023/04/18 02:54:12;;;;;;;14.60;9.93;;;;;;;;;;4955303;29;20504;-86
2023/04/18 02:56:41;;;;;;;14.97;10.00;;;;;;;;;;4954628;29;20503;-84
2023/04/18 02:59:08;;;;;;;12.33;9.90;;;;;;;;;;4954855;28;20473;-84
2023/04/18 03:01:35;;;;;;;14.80;9.90;;;;;;;;;;4954323;29;20478;-83
2023/04/18 03:04:02;;;;;;;13.87;9.50;;;;;;;;;;4954716;29;20451;-83
2023/04/18 03:06:30;;;;;;;15.60;9.67;;;;;;;;;;4953605;29;20503;-84
2023/04/18 03:08:58;;;;;;;16.83;10.07;;;7.10;99.90;;;;;;4954802;29;20514;-83
2023/04/18 03:11:25;;;;;;;13.23;9.60;;;;;;;;;;4954646;29;20447;-83
2023/04/18 03:13:53;;;;;;;17.77;10.97;;;7.10;99.90;;;;;;4954368;29;20474;-82
2023/04/18 03:16:20;;;;;;;14.67;10.27;;;;;;;;;;4954478;29;20455;-83
2023/04/18 03:18:48;;;;;;;12.97;10.57;;;;;;;;;;4954677;29;20537;-83
2023/04/18 03:21:15;;;;;;;15.57;9.77;;;;;;;;;;4953476;29;20955;-83
2023/04/18 03:23:42;;;;;;;14.20;10.43;;;;;;;;;;4954600;29;20985;-84
2023/04/18 03:26:11;;;;;;;14.33;9.80;;;;;;;;;;4954550;29;21006;-85
2023/04/18 03:28:38;;;;;;;12.70;9.30;;;;;;;;;;4954522;29;20459;-83
2023/04/18 03:31:06;;;;;;;12.17;8.80;;;;;;;;;;4952962;29;20451;-84
2023/04/18 03:33:33;;;;;;;13.53;10.57;;;;;;;;;;4931392;29;20456;-83
2023/04/18 03:36:00;;;;;;;12.60;9.73;;;;;;;;;;4934288;29;20487;-83
2023/04/18 03:38:27;;;;;;;13.33;9.87;;;;;;;;;;4935434;29;20452;-84
2023/04/18 03:40:54;;;;;;;14.43;10.50;;;;;;;;;;4935334;29;20452;-83
2023/04/18 03:43:22;;;;;;;16.80;10.20;;;;;;;;;;4935874;29;20455;-84
2023/04/18 03:45:50;;;;;;;15.80;10.30;;;;;;;;;;4938752;29;20896;-83
2023/04/18 03:48:17;;;;;;;13.87;9.13;;;;;;;;;;4938761;29;20478;-84
2023/04/18 03:50:44;;;;;;;14.83;9.60;;;;;;;;;;4937469;29;20835;-83
2023/04/18 03:53:11;;;;;;;17.20;10.07;;;;;;;;;;4938759;29;20452;-84
2023/04/18 03:55:38;;;;;;;12.77;9.73;;;;;;;;;;4938752;29;20460;-83
2023/04/18 03:58:05;;;;;;;15.17;9.23;;;;;;;;;;4938345;29;20483;-87
2023/04/18 04:00:34;;;;;;;13.67;8.57;;;6.90;99.90;;;;;;4938525;29;20494;-84
2023/04/18 04:03:01;;;;;;;13.30;9.00;;;;;;;;;;4898468;29;20544;-85
2023/04/18 04:05:29;;;;;;;14.33;10.27;;;;;;;;;;4897236;29;20503;-82
2023/04/18 04:07:56;;;;;;;15.17;10.20;;;;;;;;;;4898643;29;20464;-82
2023/04/18 04:10:23;;;;;;;13.07;9.80;;;;;;;;;;4898255;29;20518;-87
2023/04/18 04:12:50;;;;;;;13.43;9.90;;;;;;;;;;4898576;29;20458;-87
2023/04/18 04:15:17;;;;;;;13.50;9.30;;;;;;;;;;4895964;29;20929;-82
2023/04/18 04:17:45;;;;;;;16.20;9.50;;;6.90;99.90;;;;;;4898355;29;20481;-82
2023/04/18 04:20:13;;;;;;;16.57;10.50;;;;;;;;;;4897330;29;20461;-83
2023/04/18 04:22:40;;;;;;;14.20;9.83;;;;;;;;;;4898533;29;20460;-83
2023/04/18 04:25:07;;;;;;;13.47;9.60;;;;;;;;;;4898262;29;20454;-83
2023/04/18 04:27:35;;;;;;;14.07;9.30;;;;;;;;;;4917043;29;21026;-83
2023/04/18 04:30:03;;;;;;;15.47;10.87;;;;;;;;;;4938112;29;20511;-83
2023/04/18 04:32:31;;;;;;;11.30;9.10;;;;;;;;;;4938113;29;20821;-82
2023/04/18 04:35:00;;;;;;;15.60;10.93;;;;;;;;;;4936786;29;20448;-83
2023/04/18 04:37:27;;;;;;;14.47;10.67;;;;;;;;;;4937585;29;20456;-84
2023/04/18 04:39:55;;;;;;;16.53;10.30;;;;;;;;;;4934070;29;20448;-83
2023/04/18 04:42:24;;;;;;;14.07;10.50;;;;;;;;;;4937905;29;20452;-83
2023/04/18 04:44:53;;;;;;;16.97;10.83;;;;;;;;;;4937793;29;20484;-83
2023/04/18 04:47:20;;;;;;;14.20;11.20;;;;;;;;;;4937607;29;21021;-83
2023/04/18 04:49:47;;;;;;;13.10;9.67;;;;;;;;;;4936448;29;20919;-83
2023/04/18 04:52:15;;;;;;;15.37;10.57;;;;;;;;;;4937534;29;20959;-83
2023/04/18 04:54:44;;;;;;;16.40;10.40;;;;;;;;;;4937353;29;20840;-83
2023/04/18 04:57:11;;;;;;;13.50;10.07;;;;;;;;;;4937370;29;20460;-82
2023/04/18 04:59:38;;;;;;;16.43;11.00;;;;;;;;;;4937298;29;20470;-84
2023/04/18 05:02:05;;;;;;;14.60;10.10;;;;;;;;;;4937496;29;20456;-83
2023/04/18 05:04:33;;;;;;;12.07;9.47;;;;;;;;;;4937340;29;20483;-83
2023/04/18 05:07:00;;;;;;;15.70;10.30;;;;;;;;;;4936151;29;20495;-85
2023/04/18 05:09:28;;;;;;;15.40;10.70;;;;;;;;;;4937328;29;20519;-85
2023/04/18 05:11:55;;;;;;;15.43;10.73;;;;;;;;;;4937465;29;20456;-86
2023/04/18 05:14:22;;;;;;;17.00;11.07;;;;;;;;;;4937469;29;20541;-84
2023/04/18 05:16:49;;;;;;;16.33;11.00;;;;;;;;;;4937227;29;20491;-87
2023/04/18 05:19:16;;;;;;;17.50;10.13;;;;;;;;;;4936996;29;20460;-84
2023/04/18 05:21:43;;;;;;;17.00;10.70;;;;;;;;;;4935772;29;20456;-85
2023/04/18 05:24:11;;;;;;;16.00;11.50;;;;;;;;;;4937158;29;20455;-83
2023/04/18 05:26:39;;;;;;;16.47;11.70;;;6.90;99.90;;;;;;4936687;29;21014;-83
2023/04/18 05:29:06;;;;;;;14.80;10.60;;;;;;;;;;4937055;29;20476;-89
2023/04/18 05:31:33;;;;;;;21.70;12.80;;;;;;;;;;4936897;29;20821;-83
2023/04/18 05:34:00;;;;;;;26.37;13.37;;;;;;;;;;4936817;29;20979;-85
2023/04/18 05:36:27;;;;;;;16.20;12.07;;;;;;;;;;4935600;29;20459;-83
2023/04/18 05:38:55;;;;;;;16.33;10.80;;;;;;;;;;4936788;29;20451;-89
2023/04/18 05:41:22;;;;;;;20.00;10.87;;;;;;;;;;4936863;29;20459;-83
2023/04/18 05:43:50;;;;;;;15.57;11.03;;;6.80;99.90;;;;;;4936734;29;20467;-83
2023/04/18 05:46:21;;;;;;;13.77;10.47;;;;;;;;;;4918794;29;20508;-83
2023/04/18 05:48:48;;;;;;;16.20;11.70;;;;;;;;;;4936676;29;20930;-84
2023/04/18 05:51:15;;;;;;;14.83;11.00;;;;;;;;;;4935126;29;21031;-84
2023/04/18 05:53:42;;;;;;;19.70;13.00;;;;;;;;;;4936598;29;20456;-83
2023/04/18 05:56:10;;;;;;;14.07;10.50;;;;;;;;;;4936121;29;20466;-84
2023/04/18 05:58:37;;;;;;;16.23;12.43;;;;;;;;;;4934878;29;20456;-84
2023/04/18 06:01:05;;;;;;;18.80;11.80;;;7.00;99.90;;;;;;4936312;29;20464;-84
2023/04/18 06:03:32;;;;;;;20.43;11.20;;;;;;;;;;4931167;29;20562;-84
2023/04/18 06:06:00;;;;;;;15.10;10.63;;;;;;;;;;4935048;29;20463;-85
2023/04/18 06:08:27;;;;;;;19.83;11.60;;;;;;;;;;4931899;29;20452;-85
2023/04/18 06:10:54;;;;;;;16.17;11.67;;;;;;;;;;4936003;29;20948;-85
2023/04/18 06:13:21;;;;;;;15.93;11.20;;;;;;;;;;4935704;29;20970;-84
2023/04/18 06:15:48;;;;;;;17.77;11.37;;;;;;;;;;4935986;29;20812;-84
2023/04/18 06:18:17;;;;;;;18.60;11.50;;;;;;;;;;4936025;29;20490;-84
2023/04/18 06:20:44;;;;;;;17.10;12.63;;;;;;;;;;4932753;29;20464;-84
2023/04/18 06:23:11;;;;;;;17.80;11.80;;;;;;;;;;4935899;29;20499;-84
2023/04/18 06:25:38;;;;;;;15.07;10.37;;;;;;;;;;4935770;29;20467;-83
2023/04/18 06:28:05;;;;;;;17.00;11.20;;;;;;;;;;4935692;29;20500;-84
2023/04/18 06:30:32;;;;;;;18.40;11.40;;;;;;;;;;4936159;29;20444;-84
2023/04/18 06:32:59;;;;;;;19.23;10.77;;;;;;;;;;4935854;29;20452;-84
2023/04/18 06:35:30;;;;;;;16.30;10.60;;;7.30;99.90;;;;;;4934576;29;20459;-84
2023/04/18 06:37:57;;;;;;;17.10;11.40;;;;;;;;;;4935914;29;20806;-84
2023/04/18 06:40:24;;;;;;;15.97;11.70;;;;;;;;;;4935767;29;20452;-85
2023/04/18 06:42:51;;;;;;;19.40;13.23;;;;;;;;;;4935610;29;20451;-83
2023/04/18 06:45:18;;;;;;;18.13;11.37;;;;;;;;;;4935787;29;20452;-83
2023/04/18 06:47:46;;;;;;;16.53;11.80;;;;;;;;;;4935756;29;21041;-82
2023/04/18 06:50:13;;;;;;;18.27;11.70;;;;;;;;;;4934560;29;20999;-83
2023/04/18 06:52:44;;;;;;;14.17;11.23;;;;;;;;;;4935711;29;20460;-83
2023/04/18 06:55:12;;;;;;;17.90;10.70;;;7.80;99.90;;;;;;4935569;29;20460;-83
2023/04/18 06:57:39;;;;;;;17.20;12.27;;;;;;;;;;4945821;29;20815;-85
2023/04/18 07:00:07;;;;;;;15.97;10.40;;;8.10;99.90;;;;;;4954831;29;20459;-83
2023/04/18 07:02:35;;;;;;;18.77;11.47;;;8.20;99.90;;;;;;4950422;29;20459;-84
2023/04/18 07:05:02;;;;;;;16.43;11.00;;;;;;;;;;4951103;29;20454;-84
2023/04/18 07:07:29;;;;;;;13.60;10.73;;;;;;;;;;4954557;29;20495;-84
2023/04/18 07:09:57;;;;;;;14.67;11.53;;;8.20;99.90;;;;;;4954690;29;20462;-84
2023/04/18 07:12:25;;;;;;;17.70;11.13;;;;;;;;;;4954831;29;20451;-86
2023/04/18 07:14:52;;;;;;;16.00;11.00;;;;;;;;;;4955594;29;20447;-85
2023/04/18 07:17:19;;;;;;;17.30;11.60;;;;;;;;;;4954762;29;20482;-90
2023/04/18 07:19:46;;;;;;;13.90;10.13;;;;;;;;;;4957174;28;20455;-83
2023/04/18 07:22:13;;;;;;;16.57;11.43;;;;;;;;;;4958956;29;20473;-87
2023/04/18 07:24:41;;;;;;;14.33;11.57;;;;;;;;;;4959187;29;20455;-83
2023/04/18 07:27:09;;;;;;;17.30;12.20;;;8.30;99.90;;;;;;4958104;29;20498;-87
2023/04/18 07:29:36;;;;;;;15.10;9.80;;;;;;;;;;4958422;28;20490;-82
2023/04/18 07:32:03;;;;;;;13.87;9.60;;;;;;;;;;4955376;29;20974;-85
2023/04/18 07:34:32;;;;;;;14.23;10.50;;;;;;;;;;4958303;29;20454;-82
2023/04/18 07:37:00;;;;;;;14.40;10.17;;;;;;;;;;4956587;29;21014;-83
2023/04/18 07:39:27;;;;;;;16.40;11.00;;;;;;;;;;4958225;29;20451;-87
2023/04/18 07:41:54;;;;;;;11.80;9.50;;;;;;;;;;4957990;29;20455;-81
2023/04/18 07:44:24;;;;;;;14.40;10.90;;;;;;;;;;4958177;29;20455;-82
2023/04/18 07:46:51;;;;;;;15.63;10.10;;;8.50;99.90;;;;;;4958004;29;20489;-85
2023/04/18 07:49:18;;;;;;;12.67;10.70;;;;;;;;;;4958131;29;20462;-85
2023/04/18 07:51:45;;;;;;;14.70;10.33;;;;;;;;;;4949425;29;20456;-85
2023/04/18 07:54:12;;;;;;;16.40;10.17;;;;;;;;;;4936912;29;20470;-81
2023/04/18 07:56:39;;;;;;;14.77;10.90;;;;;;;;;;4938071;29;20816;-81
2023/04/18 07:59:07;;;;;;;15.37;11.03;;;;;;;;;;4938611;29;20451;-82
2023/04/18 08:01:35;;;;;;;14.20;10.47;;;8.60;99.90;;;;;;4938619;29;20468;-84
2023/04/18 08:04:02;;;;;;;20.27;10.97;;;;;;;;;;4938050;29;20983;-83
2023/04/18 08:06:29;;;;;;;16.43;10.97;;;;;;;;;;4937382;29;20506;-86
2023/04/18 08:08:57;;;;;;;16.73;12.10;;;;;;;;;;4938551;29;20448;-85
2023/04/18 08:11:25;;;;;;;17.83;12.17;;;;;;;;;;4938325;29;20456;-87
2023/04/18 08:13:52;;;;;;;15.80;11.20;;;;;;;;;;4935752;29;20862;-92
2023/04/18 08:16:19;;;;;;;13.93;10.40;;;;;;;;;;4938262;29;20448;-84
2023/04/18 08:18:47;;;;;;;16.53;12.00;;;;;;;;;;4938214;29;20878;-82
2023/04/18 08:21:14;;;;;;;16.50;10.13;;;;;;;;;;4936967;29;20868;-86
2023/04/18 08:23:41;;;;;;;15.83;11.57;;;;;;;;;;4938140;29;20947;-84
2023/04/18 08:26:08;;;;;;;16.97;12.30;;;;;;;;;;4938159;29;20456;-87
2023/04/18 08:28:35;;;;;;;14.97;11.00;;;;;;;;;;4938137;29;20495;-85
2023/04/18 08:31:02;;;;;;;15.97;11.77;;;;;;;;;;4936976;29;20460;-87
2023/04/18 08:33:30;;;;;;;14.00;10.17;;;;;;;;;;4937759;29;20460;-82
2023/04/18 08:35:58;;;;;;;16.47;11.33;;;;;;;;;;4936810;29;20451;-83
2023/04/18 08:38:25;;;;;;;13.40;9.90;;;;;;;;;;4937632;29;20488;-82
2023/04/18 08:40:52;;;;;;;15.10;10.00;;;;;;;;;;4937854;29;20948;-84
2023/04/18 08:43:19;;;;;;;15.90;11.30;;;;;;;;;;4937905;29;20809;-86
2023/04/18 08:45:47;;;;;;;13.70;10.50;;;;;;;;;;4938140;29;20452;-82
2023/04/18 08:48:15;;;;;;;14.47;10.90;;;;;;;;;;4937492;29;20708;-88
2023/04/18 08:50:42;;;;;;;13.90;10.40;;;;;;;;;;4936678;29;20818;-87
2023/04/18 08:53:11;;;;;;;16.23;11.53;;;;;;;;;;4938139;29;20816;-88
2023/04/18 08:55:39;;;;;;;19.40;11.37;;;;;;;;;;4938172;29;20475;-88
2023/04/18 08:58:06;;;;;;;13.77;10.50;;;;;;;;;;4938074;29;20475;-83
2023/04/18 09:00:34;;;;;;;12.60;9.97;;;;;;;;;;4937926;29;20483;-86
2023/04/18 09:03:01;;;;;;;13.70;10.57;;;;;;;;;;4937500;29;21091;-83
2023/04/18 09:05:28;;;;;;;14.53;10.97;;;;;;;;;;4936414;29;20479;-84
2023/04/18 09:07:56;;;;;;;13.50;10.00;;;;;;;;;;4931287;29;20559;-86
2023/04/18 09:10:29;;;;;;;15.87;11.87;;;10.70;99.90;;;;;;4937559;29;20459;-85
2023/04/18 09:12:57;;;;;;;17.60;11.13;;;;;;;;;;4937113;29;20458;-83
2023/04/18 09:15:25;;;;;;;14.53;11.73;;;10.60;99.90;;;;;;4937149;29;20464;-83
2023/04/18 09:17:53;;;;;;;14.10;11.00;;;;;;;;;;4937120;29;20495;-83
2023/04/18 09:20:33;;;;;;;14.13;10.90;;;10.70;99.90;;;;;;4935923;29;20456;-90
2023/04/18 09:23:01;;;;;;;14.20;9.77;;;10.50;99.90;;;;;;4937254;29;20463;-87
2023/04/18 09:25:33;;;;;;;21.40;15.40;;;10.40;99.90;;;;;;4937068;29;20456;-89
2023/04/18 09:28:00;;;;;;;18.00;13.20;;;;;;;;;;4937290;29;20558;-88
2023/04/18 09:30:35;;;;;;;16.40;12.57;;;10.20;99.90;;;;;;4936956;29;20498;-82
2023/04/18 09:33:03;;;;;;;18.50;12.70;;;10.20;99.90;;;;;;4937245;29;20467;-90
2023/04/18 09:35:30;;;;;;;21.90;15.23;;;;;;;;;;4936427;29;20456;-90
2023/04/18 09:37:57;;;;;;;14.23;10.40;;;;;;;;;;4937060;29;20837;-86
2023/04/18 09:40:25;;;;;;;15.20;11.50;;;;;;;;;;4934684;29;20459;-90
2023/04/18 09:42:54;;;;;;;22.00;15.73;;;9.90;99.90;;;;;;4936826;29;20581;-91
2023/04/18 09:45:21;;;;;;;17.87;12.93;;;9.90;99.90;;;;;;4937114;29;20946;-88
2023/04/18 09:47:48;;;;;;;15.30;10.50;;;;;;;;;;4936742;29;21030;-82
2023/04/18 09:50:17;;;;;;;15.90;11.53;;;;;;;;;;4935337;29;20479;-83
2023/04/18 09:52:45;;;;;;;13.43;10.47;;;10.00;99.90;;;;;;4936723;29;20457;-91
2023/04/18 09:55:16;;;;;;;15.27;11.80;;;10.10;99.90;;;;;;4936799;29;20552;-88
2023/04/18 09:57:45;;;;;;;13.77;10.50;;;10.10;99.90;;;;;;4936674;29;20444;-83
2023/04/18 10:00:19;;;;;;;15.07;10.83;;;10.30;99.90;;;;;;4936847;29;20448;-91
2023/04/18 10:02:50;;;;;;;14.97;11.57;;;10.70;99.90;;;;;;4937481;29;20454;-85
2023/04/18 10:05:19;;;;;;;17.20;11.37;;;;;;;;;;4935475;29;20462;-85
2023/04/18 10:07:48;;;;;;;19.17;12.20;;;11.50;99.90;;;;;;4936255;29;20488;-86
2023/04/18 10:10:15;;;;;;;13.13;11.37;;;;;;;;;;4936389;29;20456;-85
2023/04/18 10:12:43;;;;;;;13.97;11.73;;;;;;;;;;4936311;29;20511;-85
2023/04/18 10:15:11;;;;;;;11.67;8.20;;;;;;;;;;4936255;29;20454;-86
2023/04/18 10:17:43;;;;;;;14.17;10.53;;;;;;;;;;4935889;29;20476;-87
2023/04/18 10:20:18;;;;;;;13.80;10.80;;;11.40;99.90;;;;;;4935250;29;20483;-85
2023/04/18 10:22:45;;;;;;;14.30;11.00;;;;;;;;;;4936200;29;20535;-86
2023/04/18 10:25:12;;;;;;;15.93;10.30;;;;;;;;;;4936059;29;20456;-87
2023/04/18 10:27:57;;;;;;;14.50;11.80;;;11.50;99.90;;;;;;4936083;29;20488;-85
2023/04/18 10:30:52;;;;;;;12.90;10.20;;;11.50;99.90;;;;;;4936076;29;20527;-86
2023/04/18 10:33:29;;;;;;;15.70;12.27;;;11.50;99.90;;;;;;4936258;29;20452;-85
2023/04/18 10:36:00;;;;;;;14.20;10.47;;;11.70;99.90;;;;;;4934994;29;20456;-84
2023/04/18 10:38:27;;;;;;;13.70;11.33;;;;;;;;;;4935744;29;20452;-85
2023/04/18 10:41:13;;;;;;;13.80;9.37;;;11.80;99.90;;;;;;4935966;29;20817;-86
2023/04/18 10:44:13;;;;;;;14.07;10.40;;;11.50;99.90;;;;;;4936209;29;20455;-86
2023/04/18 10:46:41;;;;;;;10.17;9.07;;;11.70;99.90;;;;;;4935795;29;20447;-84
2023/04/18 10:49:16;;;;;;;13.10;9.33;;;11.70;99.90;;;;;;4935740;29;20502;-84
2023/04/18 10:51:44;;;;;;;10.93;9.13;;;;;;;;;;4936933;29;20455;-85
2023/04/18 10:54:13;;;;;;;11.30;9.37;;;12.00;99.90;;;;;;4935217;29;20519;-84
2023/04/18 10:56:40;;;;;;;11.33;8.40;;;;;;;;;;4938083;29;20480;-84
2023/04/18 10:59:12;;;;;;;10.20;9.00;;;11.90;99.90;;;;;;4935580;29;20460;-85
2023/04/18 11:01:46;;;;;;;10.17;9.03;;;12.00;99.90;;;;;;4935666;29;20466;-84
2023/04/18 11:04:13;;;;;;;13.57;8.97;;;;;;;;;;4935599;29;20462;-82
2023/04/18 11:06:50;;;;;;;11.50;9.30;;;12.20;99.90;;;;;;4934495;29;20483;-85
2023/04/18 11:09:17;;;;;;;10.23;8.73;;;;;;;;;;4935570;29;20930;-83
2023/04/18 11:11:44;;;;;;;12.00;8.63;;;;;;;;;;4935547;29;20459;-86
2023/04/18 11:14:11;;;;;;;11.73;9.20;;;;;;;;;;4935648;29;20456;-83
2023/04/18 11:16:39;;;;;;;10.70;8.33;;;;;;;;;;4935440;29;20484;-82
2023/04/18 11:19:18;;;;;;;9.80;8.43;;;;;;;;;;4935576;29;20455;-79
2023/04/18 11:21:45;;;;;;;13.07;11.77;;;;;;;;;;4934606;29;20483;-88
2023/04/18 11:24:21;;;;;;;10.60;9.30;;;12.10;99.90;;;;;;4935803;29;20456;-87
2023/04/18 11:26:49;;;;;;;12.00;8.67;;;;;;;;;;4935953;29;20458;-89
2023/04/18 11:29:17;;;;;;;9.23;7.43;;;11.90;99.90;;;;;;4936058;29;20506;-86
2023/04/18 11:31:50;;;;;;;8.83;7.23;;;12.10;99.90;;;;;;4936522;29;20456;-88
2023/04/18 11:34:17;;;;;;;9.50;7.90;;;;;;;;;;4934616;29;20507;-89
2023/04/18 11:36:44;;;;;;;8.90;7.20;;;;;;;;;;4934358;29;20464;-90
2023/04/18 11:39:11;;;;;;;9.80;8.10;;;;;;;;;;4936135;29;20455;-85
2023/04/18 11:41:43;;;;;;;9.20;8.13;;;;;;;;;;4935740;29;20456;-89
2023/04/18 11:44:10;;;;;;;15.23;13.60;;;;;;;;;;4935640;29;20462;-89
2023/04/18 11:46:40;;;;;;;8.80;7.70;;;;;;;;;;4935933;29;20542;-82
2023/04/18 11:49:07;;;;;;;11.57;7.43;;;;;;;;;;4934932;29;20500;-85
2023/04/18 11:51:37;;;;;;;8.53;6.80;;;;;;;;;;4934050;29;20451;-87
2023/04/18 11:54:04;;;;;;;7.23;5.40;;;;;;;;;;4935383;29;20518;-81
2023/04/18 11:56:31;;;;;;;9.00;6.03;;;12.00;99.90;;;;;;4942742;29;20486;-83
2023/04/18 11:58:59;;;;;;;8.60;5.60;;;;;;;;;;4954968;29;20459;-89
2023/04/18 12:01:27;;;;;;;6.70;5.93;;;;;;;;;;4954646;29;20451;-88
2023/04/18 12:04:00;;;;;;;8.40;5.67;;;;;;;;;;4954205;29;20456;-83
2023/04/18 12:06:28;;;;;;;7.27;5.83;;;;;;;;;;4955440;28;20479;-85
2023/04/18 12:08:58;;;;;;;7.37;5.70;;;12.30;99.90;;;;;;4957668;29;20525;-79
2023/04/18 12:11:25;;;;;;;7.20;6.07;;;;;;;;;;4957800;28;20475;-88
2023/04/18 12:13:56;;;;;;;7.67;6.33;;;12.20;99.90;;;;;;4957887;29;20463;-88
2023/04/18 12:16:28;;;;;;;10.00;7.30;;;;;;;;;;4957755;29;20455;-85
2023/04/18 12:18:59;;;;;;;7.73;6.40;;;12.10;99.90;;;;;;4957715;29;20447;-87
2023/04/18 12:21:28;;;;;;;5.80;5.13;;;;;;;;;;4956008;29;20447;-80
2023/04/18 12:23:57;;;;;;;7.00;6.23;;;;;;;;;;4957763;29;20451;-84
2023/04/18 12:26:25;;;;;;;7.00;5.23;;;;;;;;;;4957605;29;20454;-92
2023/04/18 12:28:52;;;;;;;7.60;6.03;;;;;;;;;;4957688;29;20561;-84
2023/04/18 12:31:21;;;;;;;9.33;6.77;;;;;;;;;;4957575;29;20935;-90
2023/04/18 12:33:50;;;;;;;8.70;6.70;;;;;;;;;;4957553;28;20959;-91
2023/04/18 12:36:17;;;;;;;7.43;6.37;;;;;;;;;;4956456;28;20514;-91
2023/04/18 12:38:44;;;;;;;7.77;5.93;;;;;;;;;;4954777;29;20458;-82
2023/04/18 12:41:11;;;;;;;8.63;7.30;;;;;;;;;;4934251;29;20456;-82
2023/04/18 12:43:38;;;;;;;9.47;7.27;;;;;;;;;;4936966;29;20459;-81
2023/04/18 12:46:05;;;;;;;8.40;6.80;;;;;;;;;;4937364;29;20447;-81
2023/04/18 12:48:32;;;;;;;9.43;6.47;;;;;;;;;;4937243;29;20488;-82
2023/04/18 12:51:01;;;;;;;7.73;6.40;;;;;;;;;;4936107;29;20459;-80
2023/04/18 12:53:28;;;;;;;9.60;7.33;;;;;;;;;;4937339;29;20459;-80
2023/04/18 12:55:55;;;;;;;8.57;6.30;;;;;;;;;;4936804;29;20954;-79
2023/04/18 12:58:22;;;;;;;7.70;6.30;;;;;;;;;;4937057;29;20451;-80
2023/04/18 13:00:49;;;;;;;7.77;6.50;;;;;;;;;;4937247;29;20463;-82
2023/04/18 13:03:16;;;;;;;6.33;5.30;;;;;;;;;;4937111;29;20882;-78
2023/04/18 13:05:43;;;;;;;8.17;6.30;;;;;;;;;;4936012;29;20452;-79
2023/04/18 13:08:11;;;;;;;9.03;5.87;;;13.30;99.90;;;;;;4936884;29;20500;-81
2023/04/18 13:10:38;;;;;;;7.70;6.90;;;;;;;;;;4936791;29;20532;-80
2023/04/18 13:13:05;;;;;;;8.23;6.07;;;;;;;;;;4937424;29;20460;-80
2023/04/18 13:15:32;;;;;;;9.17;6.00;;;;;;;;;;4937341;29;20436;-79
2023/04/18 13:18:03;;;;;;;5.70;4.60;;;;;;;;;;4936827;29;20483;-84
2023/04/18 13:20:30;;;;;;;6.43;5.50;;;;;;;;;;4936293;29;20543;-82
2023/04/18 13:22:57;;;;;;;6.50;5.53;;;;;;;;;;4934807;29;20459;-79
2023/04/18 13:25:26;;;;;;;6.80;5.43;;;;;;;;;;4936199;28;20455;-79
2023/04/18 13:27:54;;;;;;;6.87;4.93;;;;;;;;;;4936520;29;20444;-80
2023/04/18 13:30:21;;;;;;;6.57;5.27;;;;;;;;;;4936702;29;20504;-80
2023/04/18 13:32:48;;;;;;;7.70;5.00;;;;;;;;;;4936896;29;20828;-79
2023/04/18 13:35:15;;;;;;;6.23;4.83;;;;;;;;;;4935435;29;20460;-86
2023/04/18 13:37:42;;;;;;;7.33;5.20;;;;;;;;;;4936642;29;20813;-83
2023/04/18 13:40:10;;;;;;;5.17;4.67;;;;;;;;;;4933942;29;21027;-90
2023/04/18 13:42:38;;;;;;;5.07;4.53;;;13.40;99.90;;;;;;4936707;29;20492;-92
2023/04/18 13:45:06;;;;;;;7.27;5.40;;;;;;;;;;4936659;29;20465;-86
2023/04/18 13:47:33;;;;;;;7.10;4.73;;;;;;;;;;4936850;29;20452;-88
2023/04/18 13:50:00;;;;;;;4.67;4.00;;;;;;;;;;4935607;29;20499;-79
2023/04/18 13:52:27;;;;;;;4.40;3.97;;;;;;;;;;4936246;29;20459;-82
2023/04/18 13:54:54;;;;;;;5.30;4.53;;;;;;;;;;4935017;29;20525;-80
2023/04/18 13:57:22;;;;;;;7.00;4.90;;;;;;;;;;4935708;29;20463;-80
2023/04/18 13:59:50;;;;;;;10.93;4.40;;;;;;;;;;4936279;29;20447;-80
2023/04/18 14:02:17;;;;;;;5.70;4.37;;;;;;;;;;4936603;29;20452;-82
2023/04/18 14:04:45;;;;;;;6.70;6.00;;;;;;;;;;4936155;29;20456;-88
2023/04/18 14:07:12;;;;;;;7.43;5.30;;;;;;;;;;4936361;29;20467;-92
2023/04/18 14:09:39;;;;;;;7.27;5.90;;;;;;;;;;4936199;29;20503;-85